createdAt,value
2022-10-05T00:00:14.570Z,99.99
2022-10-05T00:01:14.561Z,99.99
2022-10-05T00:02:14.593Z,99.99
2022-10-05T00:03:14.538Z,99.99
2022-10-05T00:04:14.719Z,99.99
2022-10-05T00:05:14.595Z,99.99
2022-10-05T00:06:14.513Z,99.99
2022-10-05T00:07:14.501Z,99.99
2022-10-05T00:08:14.498Z,99.99
2022-10-05T00:09:14.481Z,99.99
2022-10-05T00:10:14.479Z,99.99
2022-10-05T00:11:14.453Z,99.99
2022-10-05T00:12:14.455Z,99.99
2022-10-05T00:13:14.434Z,99.99
2022-10-05T00:14:14.535Z,99.99
2022-10-05T00:15:14.417Z,99.99
2022-10-05T00:16:14.433Z,99.99
2022-10-05T00:17:14.393Z,99.99
2022-10-05T00:18:14.412Z,99.99
2022-10-05T00:19:14.377Z,99.99
2022-10-05T00:20:14.379Z,99.99
2022-10-05T00:21:14.356Z,99.99
2022-10-05T00:22:14.365Z,99.99
2022-10-05T00:23:14.326Z,99.99
2022-10-05T00:24:14.339Z,99.99
2022-10-05T00:25:14.397Z,99.99
2022-10-05T00:26:14.304Z,99.99
2022-10-05T00:27:14.287Z,99.99
2022-10-05T00:28:14.335Z,99.99
2022-10-05T00:29:14.268Z,99.99
2022-10-05T00:30:15.074Z,99.99
2022-10-05T00:31:14.314Z,99.99
2022-10-05T00:32:14.243Z,99.99
2022-10-05T00:33:14.231Z,99.99
2022-10-05T00:34:14.228Z,99.99
2022-10-05T00:35:14.210Z,99.99
2022-10-05T00:36:14.203Z,99.99
2022-10-05T00:37:14.189Z,99.99
2022-10-05T00:38:14.218Z,99.99
2022-10-05T00:39:14.180Z,99.99
2022-10-05T00:40:14.159Z,99.99
2022-10-05T00:41:14.149Z,99.99
2022-10-05T00:42:14.242Z,99.99
2022-10-05T00:43:14.322Z,99.99
2022-10-05T00:44:14.119Z,99.99
2022-10-05T00:45:14.102Z,99.99
2022-10-05T00:46:14.142Z,99.99
2022-10-05T00:47:14.131Z,99.99
2022-10-05T00:48:14.083Z,99.99
2022-10-05T00:49:14.066Z,99.99
2022-10-05T00:50:14.113Z,99.99
2022-10-05T00:51:14.334Z,99.99
2022-10-05T00:52:14.046Z,99.99
2022-10-05T00:53:14.022Z,99.99
2022-10-05T00:54:18.208Z,99.99
2022-10-05T00:55:14.301Z,99.99
2022-10-05T00:56:14.010Z,99.99
2022-10-05T00:57:14.333Z,99.99
2022-10-05T00:58:13.984Z,99.99
2022-10-05T00:59:13.956Z,99.99
2022-10-05T01:00:13.960Z,99.99
2022-10-05T01:01:14.040Z,99.99
2022-10-05T01:02:14.027Z,99.99
2022-10-05T01:03:13.914Z,99.99
2022-10-05T01:04:13.917Z,99.99
2022-10-05T01:05:13.919Z,99.99
2022-10-05T01:06:13.886Z,99.99
2022-10-05T01:07:13.873Z,99.99
2022-10-05T01:08:13.866Z,99.99
2022-10-05T01:09:13.846Z,99.99
2022-10-05T01:10:14.106Z,99.99
2022-10-05T01:11:13.855Z,99.99
2022-10-05T01:12:13.825Z,99.99
2022-10-05T01:13:13.816Z,99.99
2022-10-05T01:14:13.806Z,99.99
2022-10-05T01:15:13.799Z,99.99
2022-10-05T01:16:13.840Z,99.99
2022-10-05T01:17:13.759Z,99.99
2022-10-05T01:18:13.761Z,99.99
2022-10-05T01:19:13.740Z,99.99
2022-10-05T01:20:13.740Z,99.99
2022-10-05T01:21:13.728Z,99.99
2022-10-05T01:22:13.720Z,99.99
2022-10-05T01:23:13.699Z,99.99
2022-10-05T01:24:13.718Z,99.99
2022-10-05T01:25:13.680Z,99.99
2022-10-05T01:26:13.679Z,99.99
2022-10-05T01:27:13.659Z,99.99
2022-10-05T01:28:13.739Z,99.99
2022-10-05T01:29:13.642Z,99.99
2022-10-05T01:30:13.631Z,99.99
2022-10-05T01:31:13.675Z,99.99
2022-10-05T01:32:13.620Z,99.99
2022-10-05T01:33:13.605Z,99.99
2022-10-05T01:34:13.611Z,99.99
2022-10-05T01:35:13.594Z,99.99
2022-10-05T01:36:13.571Z,99.99
2022-10-05T01:37:13.553Z,99.99
2022-10-05T01:38:13.543Z,99.99
2022-10-05T01:39:13.534Z,99.99
2022-10-05T01:40:13.524Z,99.99
2022-10-05T01:41:13.515Z,99.99
2022-10-05T01:42:13.615Z,99.99
2022-10-05T01:43:13.494Z,99.99
2022-10-05T01:44:13.508Z,99.99
2022-10-05T01:45:13.474Z,99.99
2022-10-05T01:46:13.519Z,99.99
2022-10-05T01:47:13.535Z,99.99
2022-10-05T01:48:13.445Z,99.99
2022-10-05T01:49:13.426Z,99.99
2022-10-05T01:50:13.466Z,99.99
2022-10-05T01:51:13.406Z,99.99
2022-10-05T01:52:13.398Z,99.99
2022-10-05T01:53:13.387Z,99.99
2022-10-05T01:54:13.576Z,99.99
2022-10-05T01:55:13.379Z,99.99
2022-10-05T01:56:13.359Z,99.99
2022-10-05T01:57:13.339Z,99.99
2022-10-05T01:58:13.729Z,99.99
2022-10-05T01:59:13.323Z,99.99
2022-10-05T02:00:13.318Z,99.99
2022-10-05T02:01:13.382Z,99.99
2022-10-05T02:02:13.398Z,99.99
2022-10-05T02:03:13.298Z,99.99
2022-10-05T02:04:24.431Z,99.99
2022-10-05T02:05:14.341Z,99.99
2022-10-05T02:06:13.251Z,99.99
2022-10-05T02:07:13.229Z,99.99
2022-10-05T02:08:13.228Z,99.99
2022-10-05T02:09:13.240Z,99.99
2022-10-05T02:10:13.211Z,99.99
2022-10-05T02:11:13.194Z,99.99
2022-10-05T02:12:13.180Z,99.99
2022-10-05T02:13:13.181Z,99.99
2022-10-05T02:14:13.166Z,99.99
2022-10-05T02:15:13.158Z,99.99
2022-10-05T02:16:13.217Z,99.99
2022-10-05T02:17:13.123Z,99.99
2022-10-05T02:18:13.131Z,99.99
2022-10-05T02:19:13.104Z,99.99
2022-10-05T02:20:13.204Z,99.99
2022-10-05T02:21:13.122Z,99.99
2022-10-05T02:22:13.086Z,99.99
2022-10-05T02:23:13.070Z,99.99
2022-10-05T02:24:13.063Z,99.99
2022-10-05T02:25:13.069Z,99.99
2022-10-05T02:26:13.064Z,99.99
2022-10-05T02:27:13.175Z,99.99
2022-10-05T02:28:13.135Z,99.99
2022-10-05T02:29:13.026Z,99.99
2022-10-05T02:30:16.486Z,99.99
2022-10-05T02:31:13.063Z,99.99
2022-10-05T02:32:13.357Z,99.99
2022-10-05T02:33:13.034Z,99.99
2022-10-05T02:34:13.006Z,99.99
2022-10-05T02:35:12.936Z,99.99
2022-10-05T02:36:12.946Z,99.99
2022-10-05T02:37:13.276Z,99.99
2022-10-05T02:38:12.915Z,99.99
2022-10-05T02:39:12.897Z,99.99
2022-10-05T02:40:12.896Z,99.99
2022-10-05T02:41:12.874Z,99.99
2022-10-05T02:42:12.869Z,99.99
2022-10-05T02:43:12.876Z,99.99
2022-10-05T02:44:12.848Z,99.99
2022-10-05T02:45:13.043Z,99.99
2022-10-05T02:46:12.873Z,99.99
2022-10-05T02:47:13.530Z,99.99
2022-10-05T02:48:12.808Z,99.99
2022-10-05T02:49:12.790Z,99.99
2022-10-05T02:50:12.795Z,99.99
2022-10-05T02:51:12.770Z,99.99
2022-10-05T02:52:12.761Z,99.99
2022-10-05T02:53:12.751Z,99.99
2022-10-05T02:54:12.749Z,99.99
2022-10-05T02:55:12.721Z,99.99
2022-10-05T02:56:12.731Z,99.99
2022-10-05T02:57:12.702Z,99.99
2022-10-05T02:58:12.701Z,99.99
2022-10-05T02:59:12.692Z,99.99
2022-10-05T03:00:12.680Z,99.99
2022-10-05T03:01:12.782Z,99.99
2022-10-05T03:02:12.729Z,99.99
2022-10-05T03:03:12.655Z,99.99
2022-10-05T03:04:12.646Z,99.99
2022-10-05T03:05:12.624Z,99.99
2022-10-05T03:06:12.631Z,99.99
2022-10-05T03:07:12.604Z,99.99
2022-10-05T03:08:12.597Z,99.99
2022-10-05T03:09:12.574Z,99.99
2022-10-05T03:10:12.574Z,99.99
2022-10-05T03:11:12.556Z,99.99
2022-10-05T03:12:12.579Z,99.99
2022-10-05T03:13:12.537Z,99.99
2022-10-05T03:14:12.536Z,99.99
2022-10-05T03:15:12.516Z,99.99
2022-10-05T03:16:12.589Z,99.99
2022-10-05T03:17:12.505Z,99.99
2022-10-05T03:18:12.486Z,99.99
2022-10-05T03:19:12.476Z,99.99
2022-10-05T03:20:12.477Z,99.99
2022-10-05T03:21:12.449Z,99.99
2022-10-05T03:22:12.448Z,99.99
2022-10-05T03:23:12.449Z,99.99
2022-10-05T03:24:12.428Z,99.99
2022-10-05T03:25:12.410Z,99.99
2022-10-05T03:26:12.409Z,99.99
2022-10-05T03:27:12.393Z,99.99
2022-10-05T03:28:12.456Z,99.99
2022-10-05T03:29:12.370Z,99.99
2022-10-05T03:30:12.360Z,99.99
2022-10-05T03:31:12.412Z,99.99
2022-10-05T03:32:12.339Z,99.99
2022-10-05T03:33:12.328Z,99.99
2022-10-05T03:34:12.313Z,99.99
2022-10-05T03:35:12.309Z,99.99
2022-10-05T03:36:12.291Z,99.99
2022-10-05T03:37:12.292Z,99.99
2022-10-05T03:38:12.270Z,99.99
2022-10-05T03:39:12.281Z,99.99
2022-10-05T03:40:12.254Z,99.99
2022-10-05T03:41:12.241Z,99.99
2022-10-05T03:42:12.230Z,99.99
2022-10-05T03:43:12.222Z,99.99
2022-10-05T03:44:12.214Z,99.99
2022-10-05T03:45:12.214Z,99.99
2022-10-05T03:46:12.275Z,99.99
2022-10-05T03:47:12.174Z,99.99
2022-10-05T03:48:12.171Z,99.99
2022-10-05T03:49:12.162Z,99.99
2022-10-05T03:50:12.145Z,99.99
2022-10-05T03:51:12.155Z,99.99
2022-10-05T03:52:12.946Z,99.99
2022-10-05T03:53:12.126Z,99.99
2022-10-05T03:54:12.113Z,99.99
2022-10-05T03:55:12.095Z,99.99
2022-10-05T03:56:12.083Z,99.99
2022-10-05T03:57:12.075Z,99.99
2022-10-05T03:58:12.067Z,99.99
2022-10-05T03:59:12.063Z,99.99
2022-10-05T04:00:12.047Z,99.99
2022-10-05T04:01:12.109Z,99.99
2022-10-05T04:02:12.051Z,99.99
2022-10-05T04:03:12.406Z,99.99
2022-10-05T04:04:12.597Z,99.99
2022-10-05T04:05:11.996Z,99.99
2022-10-05T04:06:11.989Z,99.99
2022-10-05T04:07:11.983Z,99.99
2022-10-05T04:08:12.161Z,99.99
2022-10-05T04:09:11.956Z,99.99
2022-10-05T04:10:11.955Z,99.99
2022-10-05T04:11:11.930Z,99.99
2022-10-05T04:12:11.939Z,99.99
2022-10-05T04:13:11.910Z,99.99
2022-10-05T04:14:11.890Z,99.99
2022-10-05T04:15:16.435Z,99.99
2022-10-05T04:16:12.944Z,99.99
2022-10-05T04:17:12.691Z,99.99
2022-10-05T04:18:11.852Z,99.99
2022-10-05T04:19:11.859Z,99.99
2022-10-05T04:20:11.837Z,99.99
2022-10-05T04:21:11.828Z,99.99
2022-10-05T04:22:11.831Z,99.99
2022-10-05T04:23:11.801Z,99.99
2022-10-05T04:24:11.782Z,99.99
2022-10-05T04:25:11.791Z,99.99
2022-10-05T04:26:12.042Z,99.99
2022-10-05T04:27:11.761Z,99.99
2022-10-05T04:28:11.778Z,99.99
2022-10-05T04:29:11.743Z,99.99
2022-10-05T04:30:11.743Z,99.99
2022-10-05T04:31:11.753Z,99.99
2022-10-05T04:32:11.714Z,99.99
2022-10-05T04:33:11.694Z,99.99
2022-10-05T04:34:11.683Z,99.99
2022-10-05T04:35:11.685Z,99.99
2022-10-05T04:36:11.664Z,99.99
2022-10-05T04:37:11.652Z,99.99
2022-10-05T04:38:11.636Z,99.99
2022-10-05T04:39:11.636Z,99.99
2022-10-05T04:40:11.623Z,99.99
2022-10-05T04:41:11.613Z,99.99
2022-10-05T04:42:11.596Z,99.99
2022-10-05T04:43:11.608Z,99.99
2022-10-05T04:44:11.577Z,99.99
2022-10-05T04:45:11.575Z,99.99
2022-10-05T04:46:11.674Z,99.99
2022-10-05T04:47:11.628Z,99.99
2022-10-05T04:48:11.548Z,99.99
2022-10-05T04:49:11.528Z,99.99
2022-10-05T04:50:11.508Z,99.99
2022-10-05T04:51:11.607Z,99.99
2022-10-05T04:52:11.488Z,99.99
2022-10-05T04:53:11.489Z,99.99
2022-10-05T04:54:11.502Z,99.99
2022-10-05T04:55:11.486Z,99.99
2022-10-05T04:56:11.511Z,99.99
2022-10-05T04:57:11.599Z,99.99
2022-10-05T04:58:11.450Z,99.99
2022-10-05T04:59:11.430Z,99.99
2022-10-05T05:00:11.439Z,99.99
2022-10-05T05:01:11.523Z,99.99
2022-10-05T05:02:12.210Z,99.99
2022-10-05T05:03:11.420Z,99.99
2022-10-05T05:04:11.436Z,99.99
2022-10-05T05:05:11.428Z,99.99
2022-10-05T05:06:18.729Z,99.99
2022-10-05T05:07:13.142Z,99.99
2022-10-05T05:08:11.338Z,99.99
2022-10-05T05:09:11.335Z,99.99
2022-10-05T05:10:11.306Z,99.99
2022-10-05T05:11:16.183Z,99.99
2022-10-05T05:12:12.307Z,99.99
2022-10-05T05:13:11.294Z,99.99
2022-10-05T05:14:11.283Z,99.99
2022-10-05T05:15:11.324Z,99.99
2022-10-05T05:16:11.326Z,99.99
2022-10-05T05:17:13.327Z,99.99
2022-10-05T05:18:11.236Z,99.99
2022-10-05T05:19:11.271Z,99.99
2022-10-05T05:20:11.266Z,99.99
2022-10-05T05:21:11.186Z,99.99
2022-10-05T05:22:11.219Z,99.99
2022-10-05T05:23:11.196Z,99.99
2022-10-05T05:24:11.197Z,99.99
2022-10-05T05:25:11.168Z,99.99
2022-10-05T05:26:11.146Z,99.99
2022-10-05T05:27:11.156Z,99.99
2022-10-05T05:28:11.165Z,99.99
2022-10-05T05:29:11.157Z,99.99
2022-10-05T05:30:11.109Z,99.99
2022-10-05T05:31:11.180Z,99.99
2022-10-05T05:32:11.086Z,99.99
2022-10-05T05:33:11.104Z,99.99
2022-10-05T05:34:11.048Z,99.99
2022-10-05T05:35:11.070Z,99.99
2022-10-05T05:36:11.058Z,99.99
2022-10-05T05:37:11.050Z,99.99
2022-10-05T05:38:11.026Z,99.99
2022-10-05T05:39:11.049Z,99.99
2022-10-05T05:40:10.988Z,99.99
2022-10-05T05:41:10.986Z,99.99
2022-10-05T05:42:10.980Z,99.99
2022-10-05T05:43:11.779Z,99.99
2022-10-05T05:44:10.967Z,99.99
2022-10-05T05:45:10.954Z,99.99
2022-10-05T05:46:10.983Z,99.99
2022-10-05T05:47:11.281Z,99.99
2022-10-05T05:48:10.935Z,99.99
2022-10-05T05:49:10.966Z,99.99
2022-10-05T05:50:10.891Z,99.99
2022-10-05T05:51:10.895Z,99.99
2022-10-05T05:52:11.841Z,99.99
2022-10-05T05:53:10.870Z,99.99
2022-10-05T05:54:10.860Z,99.99
2022-10-05T05:55:10.852Z,99.99
2022-10-05T05:56:10.839Z,99.99
2022-10-05T05:57:10.844Z,99.99
2022-10-05T05:58:10.819Z,99.99
2022-10-05T05:59:10.834Z,99.99
2022-10-05T06:00:10.773Z,99.99
2022-10-05T06:01:30.614Z,99.99
2022-10-05T06:02:11.897Z,99.99
2022-10-05T06:03:10.920Z,99.99
2022-10-05T06:04:10.724Z,99.99
2022-10-05T06:05:10.745Z,99.99
2022-10-05T06:06:10.724Z,99.99
2022-10-05T06:07:10.705Z,99.99
2022-10-05T06:08:10.693Z,99.99
2022-10-05T06:09:10.684Z,99.99
2022-10-05T06:10:10.666Z,99.99
2022-10-05T06:11:10.665Z,99.99
2022-10-05T06:12:10.656Z,99.99
2022-10-05T06:13:10.638Z,99.99
2022-10-05T06:14:10.625Z,99.99
2022-10-05T06:15:10.624Z,99.99
2022-10-05T06:16:10.654Z,99.99
2022-10-05T06:17:10.609Z,99.99
2022-10-05T06:18:10.629Z,99.99
2022-10-05T06:19:10.578Z,99.99
2022-10-05T06:20:10.569Z,99.99
2022-10-05T06:21:10.570Z,99.99
2022-10-05T06:22:10.538Z,99.99
2022-10-05T06:23:10.549Z,99.99
2022-10-05T06:24:10.526Z,99.99
2022-10-05T06:25:10.516Z,99.99
2022-10-05T06:26:11.000Z,99.99
2022-10-05T06:27:10.507Z,99.99
2022-10-05T06:28:10.547Z,99.99
2022-10-05T06:29:10.488Z,99.99
2022-10-05T06:30:10.461Z,99.99
2022-10-05T06:31:10.510Z,99.99
2022-10-05T06:32:10.477Z,99.99
2022-10-05T06:33:10.530Z,99.99
2022-10-05T06:34:10.412Z,99.99
2022-10-05T06:35:10.423Z,99.99
2022-10-05T06:36:10.401Z,99.99
2022-10-05T06:37:10.392Z,99.99
2022-10-05T06:38:10.382Z,99.99
2022-10-05T06:39:10.392Z,99.99
2022-10-05T06:40:10.362Z,99.99
2022-10-05T06:41:10.352Z,99.99
2022-10-05T06:42:10.331Z,99.99
2022-10-05T06:43:10.332Z,99.99
2022-10-05T06:44:10.322Z,99.99
2022-10-05T06:45:10.303Z,99.99
2022-10-05T06:46:10.381Z,99.99
2022-10-05T06:47:10.295Z,99.99
2022-10-05T06:48:10.274Z,99.99
2022-10-05T06:49:10.272Z,99.99
2022-10-05T06:50:10.256Z,99.99
2022-10-05T06:51:10.248Z,99.99
2022-10-05T06:52:10.506Z,99.99
2022-10-05T06:53:10.235Z,99.90
2022-10-05T06:54:10.206Z,99.28
2022-10-05T06:55:14.058Z,99.28
2022-10-05T06:56:10.667Z,99.34
2022-10-05T06:57:10.184Z,98.62
2022-10-05T06:58:10.174Z,97.39
2022-10-05T06:59:10.167Z,96.83
2022-10-05T07:00:10.149Z,96.53
2022-10-05T07:01:10.218Z,96.28
2022-10-05T07:02:10.716Z,95.66
2022-10-05T07:03:10.127Z,95.72
2022-10-05T07:04:10.108Z,94.59
2022-10-05T07:05:10.099Z,94.70
2022-10-05T07:06:10.089Z,93.84
2022-10-05T07:07:10.107Z,94.45
2022-10-05T07:08:10.070Z,94.04
2022-10-05T07:09:10.068Z,93.22
2022-10-05T07:10:10.039Z,93.28
2022-10-05T07:11:10.850Z,93.18
2022-10-05T07:12:10.023Z,92.77
2022-10-05T07:13:10.023Z,92.66
2022-10-05T07:14:10.006Z,91.60
2022-10-05T07:15:10.802Z,91.19
2022-10-05T07:16:10.837Z,91.09
2022-10-05T07:17:09.987Z,90.23
2022-10-05T07:18:09.962Z,90.59
2022-10-05T07:19:10.006Z,89.78
2022-10-05T07:20:09.943Z,90.90
2022-10-05T07:21:09.930Z,90.86
2022-10-05T07:22:09.912Z,88.10
2022-10-05T07:23:09.915Z,87.18
2022-10-05T07:24:09.903Z,88.06
2022-10-05T07:25:09.884Z,87.14
2022-10-05T07:26:09.982Z,87.14
2022-10-05T07:27:09.870Z,85.77
2022-10-05T07:28:09.882Z,85.68
2022-10-05T07:29:10.665Z,85.88
2022-10-05T07:30:09.826Z,84.11
2022-10-05T07:31:09.952Z,85.53
2022-10-05T07:32:09.808Z,84.92
2022-10-05T07:33:09.804Z,84.61
2022-10-05T07:34:09.796Z,85.39
2022-10-05T07:35:09.798Z,82.68
2022-10-05T07:36:09.758Z,83.49
2022-10-05T07:37:09.760Z,86.15
2022-10-05T07:38:09.916Z,82.64
2022-10-05T07:39:09.737Z,82.23
2022-10-05T07:40:09.718Z,80.56
2022-10-05T07:41:09.748Z,80.83
2022-10-05T07:42:09.709Z,81.71
2022-10-05T07:43:09.699Z,79.27
2022-10-05T07:44:12.704Z,80.90
2022-10-05T07:45:09.679Z,80.99
2022-10-05T07:46:09.719Z,80.55
2022-10-05T07:47:09.662Z,79.94
2022-10-05T07:48:09.631Z,81.16
2022-10-05T07:49:09.742Z,82.07
2022-10-05T07:50:09.630Z,79.53
2022-10-05T07:51:09.713Z,80.04
2022-10-05T07:52:09.602Z,81.57
2022-10-05T07:53:09.592Z,82.07
2022-10-05T07:54:09.581Z,80.15
2022-10-05T07:55:09.575Z,79.43
2022-10-05T07:56:10.373Z,80.76
2022-10-05T07:57:09.545Z,79.33
2022-10-05T07:58:09.543Z,78.78
2022-10-05T07:59:09.524Z,80.11
2022-10-05T08:00:09.522Z,79.19
2022-10-05T08:01:09.504Z,78.95
2022-10-05T08:02:09.718Z,79.05
2022-10-05T08:03:09.638Z,77.83
2022-10-05T08:04:09.500Z,77.33
2022-10-05T08:05:09.470Z,79.16
2022-10-05T08:06:09.457Z,77.49
2022-10-05T08:07:09.560Z,76.03
2022-10-05T08:08:09.438Z,77.15
2022-10-05T08:09:09.419Z,74.88
2022-10-05T08:10:09.408Z,74.54
2022-10-05T08:11:09.399Z,74.14
2022-10-05T08:12:09.387Z,74.65
2022-10-05T08:13:09.385Z,75.86
2022-10-05T08:14:09.386Z,75.52
2022-10-05T08:15:09.349Z,75.73
2022-10-05T08:16:09.451Z,72.65
2022-10-05T08:17:09.329Z,72.75
2022-10-05T08:18:09.339Z,74.88
2022-10-05T08:19:09.311Z,75.85
2022-10-05T08:20:09.352Z,74.84
2022-10-05T08:21:09.282Z,74.95
2022-10-05T08:22:09.281Z,76.56
2022-10-05T08:23:10.093Z,75.62
2022-10-05T08:24:09.270Z,74.81
2022-10-05T08:25:09.243Z,72.99
2022-10-05T08:26:09.243Z,73.90
2022-10-05T08:27:09.223Z,74.84
2022-10-05T08:28:09.276Z,75.15
2022-10-05T08:29:13.611Z,76.12
2022-10-05T08:30:09.203Z,77.03
2022-10-05T08:31:09.231Z,74.81
2022-10-05T08:32:09.176Z,73.90
2022-10-05T08:33:09.155Z,73.25
2022-10-05T08:34:09.157Z,74.07
2022-10-05T08:35:09.146Z,72.55
2022-10-05T08:36:09.136Z,74.57
2022-10-05T08:37:09.126Z,75.58
2022-10-05T08:38:09.117Z,73.72
2022-10-05T08:39:09.097Z,74.33
2022-10-05T08:40:09.110Z,75.14
2022-10-05T08:41:09.107Z,74.84
2022-10-05T08:42:09.068Z,73.69
2022-10-05T08:43:09.059Z,73.59
2022-10-05T08:44:09.050Z,74.60
2022-10-05T08:45:09.380Z,73.08
2022-10-05T08:46:09.119Z,72.58
2022-10-05T08:47:09.021Z,73.59
2022-10-05T08:48:09.008Z,72.78
2022-10-05T08:49:08.990Z,73.28
2022-10-05T08:50:08.994Z,72.58
2022-10-05T08:51:08.974Z,72.68
2022-10-05T08:52:08.977Z,73.69
2022-10-05T08:53:08.984Z,73.90
2022-10-05T08:54:08.952Z,72.78
2022-10-05T08:55:08.938Z,70.93
2022-10-05T08:56:08.933Z,71.94
2022-10-05T08:57:08.914Z,71.23
2022-10-05T08:58:08.910Z,71.70
2022-10-05T08:59:08.992Z,74.26
2022-10-05T09:00:08.886Z,71.94
2022-10-05T09:01:08.941Z,70.73
2022-10-05T09:02:08.967Z,69.31
2022-10-05T09:03:08.848Z,70.09
2022-10-05T09:04:08.847Z,70.09
2022-10-05T09:05:08.836Z,68.77
2022-10-05T09:06:08.817Z,70.39
2022-10-05T09:07:08.804Z,71.50
2022-10-05T09:08:08.806Z,68.20
2022-10-05T09:09:08.808Z,69.92
2022-10-05T09:10:08.817Z,67.60
2022-10-05T09:11:08.766Z,69.31
2022-10-05T09:12:09.569Z,64.76
2022-10-05T09:13:08.739Z,68.63
2022-10-05T09:14:08.739Z,68.30
2022-10-05T09:15:24.934Z,68.60
2022-10-05T09:16:09.886Z,69.18
2022-10-05T09:17:08.697Z,65.64
2022-10-05T09:18:08.708Z,67.53
2022-10-05T09:19:08.691Z,67.80
2022-10-05T09:20:08.814Z,67.57
2022-10-05T09:21:08.652Z,66.25
2022-10-05T09:22:08.653Z,61.21
2022-10-05T09:23:08.636Z,62.93
2022-10-05T09:24:08.632Z,65.15
2022-10-05T09:25:08.619Z,67.63
2022-10-05T09:26:08.621Z,67.84
2022-10-05T09:27:08.605Z,68.01
2022-10-05T09:28:08.654Z,66.97
2022-10-05T09:29:08.591Z,66.47
2022-10-05T09:30:08.576Z,65.83
2022-10-05T09:31:08.667Z,65.12
2022-10-05T09:32:10.777Z,63.18
2022-10-05T09:33:09.550Z,63.89
2022-10-05T09:34:08.529Z,63.35
2022-10-05T09:35:08.516Z,64.36
2022-10-05T09:36:08.564Z,63.73
2022-10-05T09:37:08.488Z,64.33
2022-10-05T09:38:08.590Z,62.79
2022-10-05T09:39:08.468Z,62.69
2022-10-05T09:40:08.472Z,62.08
2022-10-05T09:41:08.459Z,55.96
2022-10-05T09:42:08.461Z,60.21
2022-10-05T09:43:08.422Z,62.02
2022-10-05T09:44:08.430Z,62.39
2022-10-05T09:45:08.409Z,61.69
2022-10-05T09:46:08.733Z,61.99
2022-10-05T09:47:08.383Z,61.05
2022-10-05T09:48:08.381Z,62.16
2022-10-05T09:49:08.352Z,60.45
2022-10-05T09:50:08.378Z,61.46
2022-10-05T09:51:08.350Z,57.44
2022-10-05T09:52:08.333Z,60.72
2022-10-05T09:53:08.315Z,59.22
2022-10-05T09:54:08.592Z,62.53
2022-10-05T09:55:08.305Z,61.02
2022-10-05T09:56:08.466Z,61.33
2022-10-05T09:57:08.276Z,61.40
2022-10-05T09:58:08.276Z,61.60
2022-10-05T09:59:08.255Z,58.89
2022-10-05T10:01:15.754Z,58.79
2022-10-05T10:02:09.272Z,60.27
2022-10-05T10:03:08.272Z,60.47
2022-10-05T10:04:08.221Z,60.86
2022-10-05T10:05:08.189Z,58.66
2022-10-05T10:06:08.194Z,58.73
2022-10-05T10:07:08.183Z,56.83
2022-10-05T10:08:08.181Z,56.65
2022-10-05T10:09:08.151Z,57.15
2022-10-05T10:10:08.153Z,58.86
2022-10-05T10:11:08.131Z,56.96
2022-10-05T10:12:08.122Z,57.26
2022-10-05T10:13:08.102Z,56.76
2022-10-05T10:14:08.106Z,59.74
2022-10-05T10:15:08.091Z,58.83
2022-10-05T10:16:08.204Z,56.60
2022-10-05T10:17:08.066Z,59.31
2022-10-05T10:18:08.064Z,64.22
2022-10-05T10:19:08.035Z,60.21
2022-10-05T10:20:08.047Z,58.50
2022-10-05T10:21:08.032Z,59.31
2022-10-05T10:22:08.026Z,60.18
2022-10-05T10:23:08.006Z,59.88
2022-10-05T10:24:07.996Z,57.35
2022-10-05T10:25:07.986Z,57.37
2022-10-05T10:26:07.978Z,57.78
2022-10-05T10:27:07.957Z,59.68
2022-10-05T10:28:07.996Z,59.38
2022-10-05T10:29:07.939Z,59.75
2022-10-05T10:30:07.996Z,57.85
2022-10-05T10:31:07.949Z,59.15
2022-10-05T10:32:07.909Z,58.22
2022-10-05T10:33:07.900Z,58.22
2022-10-05T10:34:07.890Z,56.12
2022-10-05T10:35:07.883Z,57.02
2022-10-05T10:36:07.969Z,56.32
2022-10-05T10:37:07.856Z,58.42
2022-10-05T10:38:07.852Z,57.42
2022-10-05T10:39:07.861Z,56.72
2022-10-05T10:40:07.907Z,57.72
2022-10-05T10:41:07.812Z,58.22
2022-10-05T10:42:07.813Z,59.09
2022-10-05T10:43:07.793Z,58.49
2022-10-05T10:44:07.803Z,57.69
2022-10-05T10:45:08.142Z,58.97
2022-10-05T10:46:07.844Z,58.76
2022-10-05T10:47:07.745Z,57.54
2022-10-05T10:48:07.762Z,58.54
2022-10-05T10:49:07.725Z,56.37
2022-10-05T10:50:07.937Z,58.37
2022-10-05T10:51:07.709Z,59.14
2022-10-05T10:52:07.709Z,57.93
2022-10-05T10:53:07.687Z,57.14
2022-10-05T10:54:07.688Z,57.64
2022-10-05T10:55:07.683Z,57.81
2022-10-05T10:56:07.667Z,56.31
2022-10-05T10:57:07.657Z,57.61
2022-10-05T10:58:11.187Z,61.00
2022-10-05T10:59:08.630Z,55.21
2022-10-05T11:00:07.621Z,56.21
2022-10-05T11:01:08.442Z,55.81
2022-10-05T11:02:07.654Z,55.71
2022-10-05T11:03:07.631Z,56.01
2022-10-05T11:04:07.582Z,56.51
2022-10-05T11:05:07.563Z,56.21
2022-10-05T11:06:07.580Z,55.51
2022-10-05T11:07:07.543Z,55.71
2022-10-05T11:08:07.555Z,55.32
2022-10-05T11:09:07.524Z,55.91
2022-10-05T11:10:07.596Z,57.28
2022-10-05T11:11:07.505Z,57.58
2022-10-05T11:12:07.566Z,56.26
2022-10-05T11:13:07.476Z,55.04
2022-10-05T11:14:07.479Z,57.13
2022-10-05T11:15:07.467Z,57.43
2022-10-05T11:17:07.543Z,55.54
2022-10-05T11:18:07.460Z,54.34
2022-10-05T11:19:07.420Z,54.74
2022-10-05T11:20:07.524Z,54.74
2022-10-05T11:21:07.398Z,55.93
2022-10-05T11:22:07.401Z,54.01
2022-10-05T11:23:07.370Z,51.77
2022-10-05T11:24:07.472Z,56.59
2022-10-05T11:25:07.351Z,56.76
2022-10-05T11:26:07.352Z,52.19
2022-10-05T11:27:07.332Z,53.17
2022-10-05T11:28:07.402Z,52.74
2022-10-05T11:29:07.315Z,52.84
2022-10-05T11:30:07.314Z,52.51
2022-10-05T11:31:07.367Z,52.29
2022-10-05T11:32:07.285Z,51.17
2022-10-05T11:33:07.272Z,50.48
2022-10-05T11:34:07.276Z,53.29
2022-10-05T11:35:07.271Z,52.89
2022-10-05T11:36:07.253Z,49.98
2022-10-05T11:37:07.226Z,49.68
2022-10-05T11:38:07.226Z,50.08
2022-10-05T11:39:07.216Z,50.48
2022-10-05T11:40:07.207Z,51.45
2022-10-05T11:41:07.210Z,56.72
2022-10-05T11:42:07.192Z,50.55
2022-10-05T11:43:07.178Z,54.83
2022-10-05T11:44:07.345Z,52.34
2022-10-05T11:45:07.279Z,50.63
2022-10-05T11:46:07.199Z,54.13
2022-10-05T11:47:07.128Z,50.48
2022-10-05T11:48:07.132Z,51.97
2022-10-05T11:49:07.531Z,53.46
2022-10-05T11:50:07.111Z,52.69
2022-10-05T11:51:07.093Z,51.07
2022-10-05T11:52:07.087Z,52.54
2022-10-05T11:53:07.063Z,51.52
2022-10-05T11:54:07.073Z,50.70
2022-10-05T11:55:11.621Z,49.58
2022-10-05T11:56:08.042Z,50.68
2022-10-05T11:57:07.023Z,47.67
2022-10-05T11:58:07.118Z,49.07
2022-10-05T11:59:07.006Z,47.87
2022-10-05T12:00:06.995Z,45.81
2022-10-05T12:01:07.171Z,47.47
2022-10-05T12:02:06.977Z,48.57
2022-10-05T12:03:07.108Z,47.25
2022-10-05T12:04:07.057Z,48.72
2022-10-05T12:05:06.938Z,46.42
2022-10-05T12:06:06.929Z,45.70
2022-10-05T12:07:06.948Z,46.30
2022-10-05T12:08:06.912Z,50.26
2022-10-05T12:09:06.901Z,48.57
2022-10-05T12:10:06.892Z,47.26
2022-10-05T12:11:06.981Z,46.77
2022-10-05T12:12:07.005Z,46.27
2022-10-05T12:13:06.870Z,45.48
2022-10-05T12:14:06.852Z,44.98
2022-10-05T12:15:06.842Z,49.02
2022-10-05T12:16:06.864Z,42.90
2022-10-05T12:17:07.293Z,43.97
2022-10-05T12:18:06.804Z,43.48
2022-10-05T12:19:06.807Z,43.87
2022-10-05T12:20:06.785Z,43.85
2022-10-05T12:21:06.791Z,43.16
2022-10-05T12:22:06.770Z,42.57
2022-10-05T12:23:06.766Z,41.85
2022-10-05T12:24:06.747Z,41.47
2022-10-05T12:25:06.738Z,40.90
2022-10-05T12:26:06.718Z,41.89
2022-10-05T12:27:06.718Z,41.10
2022-10-05T12:28:07.563Z,42.76
2022-10-05T12:29:06.741Z,42.17
2022-10-05T12:30:06.679Z,40.19
2022-10-05T12:31:06.709Z,39.77
2022-10-05T12:32:06.662Z,39.58
2022-10-05T12:33:06.663Z,40.86
2022-10-05T12:34:06.649Z,42.64
2022-10-05T12:35:06.651Z,41.18
2022-10-05T12:36:06.623Z,40.88
2022-10-05T12:37:06.617Z,42.27
2022-10-05T12:38:06.595Z,41.67
2022-10-05T12:39:06.594Z,42.86
2022-10-05T12:40:06.576Z,41.39
2022-10-05T12:41:06.586Z,41.39
2022-10-05T12:42:06.556Z,43.97
2022-10-05T12:43:06.556Z,41.31
2022-10-05T12:44:06.536Z,42.50
2022-10-05T12:45:06.541Z,42.38
2022-10-05T12:46:06.550Z,43.28
2022-10-05T12:47:06.550Z,43.00
2022-10-05T12:48:06.498Z,41.61
2022-10-05T12:49:06.499Z,42.80
2022-10-05T12:50:06.729Z,43.12
2022-10-05T12:51:06.489Z,44.11
2022-10-05T12:52:06.485Z,44.90
2022-10-05T12:53:06.460Z,43.66
2022-10-05T12:54:06.442Z,43.88